Time;durP1;ratioP1;P1;durP2;ratioP2;P2;SDS_P1;SDS_P2;PMS_P1;PMS_P2;Temp;Humidity;BMP_temperature;BMP_pressure;BME280_temperature;BME280_humidity;BME280_pressure;Samples;Min_cycle;Max_cycle;Signal;HPM_P1;HPM_P2
2022/08/31 00:05:12;;;;;;;6.03;4.57;;;19.20;99.90;;;;;;5006589;28;20220;-75
2022/08/31 00:07:37;;;;;;;7.33;4.50;;;19.10;99.90;;;;;;5005373;28;20061;-75
2022/08/31 00:10:12;;;;;;;7.50;4.47;;;19.10;99.90;;;;;;5005529;28;20081;-75
2022/08/31 00:12:41;;;;;;;5.97;4.03;;;19.10;99.90;;;;;;5005285;28;20025;-75
2022/08/31 00:15:07;;;;;;;5.43;4.00;;;19.00;99.90;;;;;;5005160;28;20072;-75
2022/08/31 00:17:33;;;;;;;4.93;4.10;;;19.00;99.90;;;;;;5005327;28;20050;-75
2022/08/31 00:19:59;;;;;;;5.90;4.03;;;19.00;99.90;;;;;;5005249;28;20281;-75
2022/08/31 00:22:24;;;;;;;6.57;4.17;;;19.00;99.90;;;;;;5005172;28;20376;-75
2022/08/31 00:24:50;;;;;;;8.53;4.57;;;18.90;99.90;;;;;;5004994;28;20045;-75
2022/08/31 00:27:16;;;;;;;8.37;4.37;;;18.90;99.90;;;;;;5006032;28;20367;-75
2022/08/31 00:29:42;;;;;;;6.27;4.40;;;18.90;99.90;;;;;;5021169;28;20539;-75
2022/08/31 00:32:07;;;;;;;5.67;4.67;;;18.80;99.90;;;;;;5006183;28;20031;-76
2022/08/31 00:34:33;;;;;;;7.63;4.50;;;18.80;99.90;;;;;;5004857;28;20389;-75
2022/08/31 00:36:59;;;;;;;5.40;4.13;;;18.80;99.90;;;;;;5004938;28;20229;-76
2022/08/31 00:39:25;;;;;;;7.05;4.82;;;18.80;99.90;;;;;;5006014;28;20026;-77
2022/08/31 00:41:51;;;;;;;7.83;4.77;;;18.70;99.90;;;;;;5005303;28;20030;-73
2022/08/31 00:44:17;;;;;;;8.43;4.80;;;18.70;99.90;;;;;;5005608;28;20030;-75
2022/08/31 00:46:42;;;;;;;8.17;4.70;;;18.70;99.90;;;;;;5005162;28;20031;-75
2022/08/31 00:49:16;;;;;;;6.80;4.03;;;18.70;99.90;;;;;;5006428;28;20073;-76
2022/08/31 00:51:48;;;;;;;7.10;4.78;;;18.70;99.90;;;;;;5005136;28;20019;-76
2022/08/31 00:54:17;;;;;;;6.60;5.03;;;18.70;99.90;;;;;;5005041;28;20244;-76
2022/08/31 00:56:43;;;;;;;7.05;4.72;;;18.60;99.90;;;;;;5004809;28;20038;-76
2022/08/31 00:59:10;;;;;;;7.00;4.53;;;18.70;99.90;;;;;;5004329;28;20261;-75
2022/08/31 01:01:36;;;;;;;11.85;5.05;;;18.60;99.90;;;;;;5004724;28;20030;-75
2022/08/31 01:04:02;;;;;;;8.17;4.20;;;18.60;99.90;;;;;;5004577;28;20050;-76
2022/08/31 01:06:28;;;;;;;5.63;4.50;;;18.60;99.90;;;;;;5005839;28;20033;-75
2022/08/31 01:08:55;;;;;;;6.60;4.30;;;18.60;99.90;;;;;;5005413;28;20030;-75
2022/08/31 01:11:20;;;;;;;7.65;4.32;;;18.60;99.90;;;;;;4988290;28;20022;-75
2022/08/31 01:13:46;;;;;;;6.70;4.53;;;18.60;99.90;;;;;;4988271;28;20033;-75
2022/08/31 01:16:19;;;;;;;7.87;5.07;;;18.60;99.90;;;;;;4984996;28;20037;-75
2022/08/31 01:18:44;;;;;;;7.57;4.75;;;18.60;99.90;;;;;;4969367;28;20045;-76
2022/08/31 01:21:13;;;;;;;8.70;5.20;;;18.60;99.90;;;;;;4968461;28;20026;-75
2022/08/31 01:23:41;;;;;;;7.55;4.55;;;18.60;99.90;;;;;;4985445;28;20023;-75
2022/08/31 01:26:07;;;;;;;8.55;5.00;;;18.60;99.90;;;;;;4968970;28;20043;-75
2022/08/31 01:28:33;;;;;;;8.27;5.13;;;18.60;99.90;;;;;;4984283;28;20377;-75
2022/08/31 01:31:09;;;;;;;6.73;4.30;;;18.60;99.90;;;;;;4990253;28;20037;-74
2022/08/31 01:33:37;;;;;;;7.75;5.22;;;18.50;99.90;;;;;;4979172;28;20014;-74
2022/08/31 01:36:04;;;;;;;9.45;5.10;;;18.50;99.90;;;;;;5003550;28;20034;-75
2022/08/31 01:38:30;;;;;;;7.07;5.40;;;18.50;99.90;;;;;;4987759;28;20034;-76
2022/08/31 01:40:57;;;;;;;6.33;4.97;;;18.40;99.90;;;;;;4987731;28;20034;-75
2022/08/31 01:43:23;;;;;;;6.82;4.40;;;18.40;99.90;;;;;;4987351;28;20026;-75
2022/08/31 01:45:49;;;;;;;8.02;4.72;;;18.40;99.90;;;;;;5003830;28;20030;-75
2022/08/31 01:48:15;;;;;;;7.00;4.60;;;18.40;99.90;;;;;;5003577;28;20037;-74
2022/08/31 01:50:41;;;;;;;7.10;4.97;;;18.40;99.90;;;;;;5003876;28;20317;-75
2022/08/31 01:53:07;;;;;;;6.53;4.63;;;18.40;99.90;;;;;;5003439;28;20085;-74
2022/08/31 01:55:32;;;;;;;8.80;4.83;;;18.30;99.90;;;;;;5003441;28;20027;-75
2022/08/31 01:57:59;;;;;;;4.47;3.90;;;18.30;99.90;;;;;;5004214;28;20032;-74
2022/08/31 02:00:25;;;;;;;8.40;4.82;;;18.30;99.90;;;;;;5003462;28;20037;-75
2022/08/31 02:02:51;;;;;;;8.68;5.60;;;18.30;99.90;;;;;;5003109;28;20026;-75
2022/08/31 02:05:17;;;;;;;6.20;5.13;;;18.30;99.90;;;;;;5004346;28;20057;-74
2022/08/31 02:07:43;;;;;;;8.77;4.77;;;18.20;99.90;;;;;;5004235;28;20049;-75
2022/08/31 02:10:08;;;;;;;8.60;4.67;;;18.30;99.90;;;;;;5004272;28;20022;-75
2022/08/31 02:12:34;;;;;;;8.87;5.57;;;18.20;99.90;;;;;;5002821;28;20081;-75
2022/08/31 02:15:00;;;;;;;7.67;5.40;;;18.30;99.90;;;;;;5003482;28;20022;-75
2022/08/31 02:17:26;;;;;;;6.50;4.43;;;18.20;99.90;;;;;;5003990;28;20225;-75
2022/08/31 02:19:52;;;;;;;7.05;4.90;;;18.20;99.90;;;;;;5003136;28;20317;-75
2022/08/31 02:22:18;;;;;;;9.00;4.93;;;18.20;99.90;;;;;;5004071;28;20026;-74
2022/08/31 02:24:43;;;;;;;7.10;4.80;;;18.20;99.90;;;;;;5002557;28;20032;-74
2022/08/31 02:27:09;;;;;;;7.00;4.97;;;18.20;99.90;;;;;;5003735;28;20037;-75
2022/08/31 02:29:35;;;;;;;7.90;5.37;;;18.20;99.90;;;;;;5003497;28;20030;-75
2022/08/31 02:32:01;;;;;;;7.07;5.10;;;18.20;99.90;;;;;;5003619;28;20249;-75
2022/08/31 02:34:26;;;;;;;6.10;4.97;;;18.20;99.90;;;;;;5002381;28;20026;-75
2022/08/31 02:36:52;;;;;;;9.93;4.93;;;18.20;99.90;;;;;;5002629;28;20026;-75
2022/08/31 02:39:18;;;;;;;9.33;5.30;;;18.10;99.90;;;;;;5002616;28;20054;-75
2022/08/31 02:41:44;;;;;;;8.67;5.53;;;18.10;99.90;;;;;;5003737;28;20363;-75
2022/08/31 02:44:09;;;;;;;7.87;5.33;;;18.10;99.90;;;;;;5003200;28;20077;-75
2022/08/31 02:46:35;;;;;;;7.17;4.77;;;18.10;99.90;;;;;;5003406;28;20053;-75
2022/08/31 02:49:01;;;;;;;9.20;5.43;;;18.10;99.90;;;;;;5002453;28;20026;-76
2022/08/31 02:51:27;;;;;;;8.13;5.20;;;18.10;99.90;;;;;;5002488;28;20049;-76
2022/08/31 02:53:53;;;;;;;8.53;5.67;;;18.10;99.90;;;;;;5003303;28;20019;-75
2022/08/31 02:56:18;;;;;;;7.80;5.13;;;18.10;99.90;;;;;;5002381;28;20089;-75
2022/08/31 02:58:44;;;;;;;8.20;5.27;;;18.10;99.90;;;;;;5003177;28;20038;-75
2022/08/31 03:01:10;;;;;;;11.33;5.83;;;18.10;99.90;;;;;;4985884;28;20025;-75
2022/08/31 03:03:37;;;;;;;9.17;6.23;;;18.10;99.90;;;;;;5001931;28;20030;-75
2022/08/31 03:06:03;;;;;;;7.47;5.75;;;18.00;99.90;;;;;;5002100;28;20026;-76
2022/08/31 03:08:29;;;;;;;6.57;5.23;;;18.00;99.90;;;;;;5001938;28;20198;-75
2022/08/31 03:10:54;;;;;;;8.57;5.87;;;18.00;99.90;;;;;;5003243;28;20026;-76
2022/08/31 03:13:20;;;;;;;8.50;4.90;;;18.00;99.90;;;;;;5001581;28;20026;-76
2022/08/31 03:15:46;;;;;;;12.60;5.37;;;18.00;99.90;;;;;;5000933;28;20085;-76
2022/08/31 03:18:12;;;;;;;6.53;5.23;;;18.00;99.90;;;;;;4993660;28;20034;-76
2022/08/31 03:20:38;;;;;;;6.67;5.60;;;17.90;99.90;;;;;;5001922;28;20034;-76
2022/08/31 03:23:03;;;;;;;7.10;5.23;;;17.90;99.90;;;;;;5002733;28;20314;-76
2022/08/31 03:25:29;;;;;;;7.93;5.30;;;17.90;99.90;;;;;;5000930;28;20233;-77
2022/08/31 03:27:55;;;;;;;7.13;5.33;;;17.90;99.90;;;;;;5002421;28;20026;-77
2022/08/31 03:30:22;;;;;;;7.37;5.47;;;17.90;99.90;;;;;;5001784;28;20030;-77
2022/08/31 03:32:49;;;;;;;6.97;5.95;;;17.90;99.90;;;;;;5001540;28;20040;-77
2022/08/31 03:35:16;;;;;;;12.68;5.30;;;17.90;99.90;;;;;;5002817;28;20065;-77
2022/08/31 03:37:42;;;;;;;8.27;5.70;;;17.90;99.90;;;;;;5001476;28;20029;-77
2022/08/31 03:40:09;;;;;;;9.53;5.53;;;17.90;99.90;;;;;;5001744;28;20091;-77
2022/08/31 03:42:34;;;;;;;7.45;5.03;;;17.90;99.90;;;;;;5000117;28;20026;-77
2022/08/31 03:45:00;;;;;;;6.93;5.07;;;17.90;99.90;;;;;;5001464;28;20053;-76
2022/08/31 03:47:26;;;;;;;9.80;5.93;;;17.90;99.90;;;;;;5002606;28;20057;-77
2022/08/31 03:49:52;;;;;;;9.10;5.77;;;17.80;99.90;;;;;;5001610;28;20221;-76
2022/08/31 03:52:20;;;;;;;11.30;5.37;;;17.80;99.90;;;;;;5002676;28;20026;-76
2022/08/31 03:54:46;;;;;;;9.00;5.80;;;17.80;99.90;;;;;;5002426;28;20022;-76
2022/08/31 03:57:12;;;;;;;11.00;5.80;;;17.80;99.90;;;;;;5002711;28;20022;-76
2022/08/31 03:59:38;;;;;;;8.90;5.80;;;17.80;99.90;;;;;;5002384;28;20272;-76
2022/08/31 04:02:03;;;;;;;7.87;5.80;;;17.80;99.90;;;;;;5002619;28;20097;-77
2022/08/31 04:04:29;;;;;;;10.53;5.60;;;17.80;99.90;;;;;;5001240;28;20034;-77
2022/08/31 04:06:55;;;;;;;7.63;5.83;;;17.80;99.90;;;;;;5002483;28;20270;-78
2022/08/31 04:09:21;;;;;;;11.27;5.17;;;17.80;99.90;;;;;;5002461;28;20061;-78
2022/08/31 04:11:46;;;;;;;7.37;5.30;;;17.80;99.90;;;;;;5002498;28;20348;-77
2022/08/31 04:14:12;;;;;;;6.73;5.40;;;17.80;99.90;;;;;;5000918;28;20018;-77
2022/08/31 04:16:38;;;;;;;8.87;5.60;;;17.80;99.90;;;;;;5001364;28;20022;-77
2022/08/31 04:19:05;;;;;;;9.70;5.03;;;17.70;99.90;;;;;;5001302;28;20050;-77
2022/08/31 04:21:30;;;;;;;7.18;5.82;;;17.70;99.90;;;;;;5001321;28;20077;-77
2022/08/31 04:23:57;;;;;;;7.90;6.03;;;17.70;99.90;;;;;;5001134;28;20325;-76
2022/08/31 04:26:29;;;;;;;11.25;5.90;;;17.70;99.90;;;;;;5001230;28;20072;-76
2022/08/31 04:28:55;;;;;;;7.40;5.68;;;17.70;99.90;;;;;;5000930;28;20038;-77
2022/08/31 04:31:22;;;;;;;9.10;6.50;;;17.70;99.90;;;;;;5001294;28;20041;-77
2022/08/31 04:33:47;;;;;;;;;;;17.70;99.90;;;;;;5001431;28;20038;-76
2022/08/31 04:36:16;;;;;;;7.75;5.93;;;17.70;99.90;;;;;;5002133;28;19987;-76
2022/08/31 04:38:47;;;;;;;8.38;6.13;;;17.70;99.90;;;;;;5004702;28;20022;-76
2022/08/31 04:41:15;;;;;;;6.70;5.55;;;17.60;99.90;;;;;;5005901;28;20061;-76
2022/08/31 04:43:45;;;;;;;8.27;6.30;;;17.60;99.90;;;;;;5003454;28;20023;-76
2022/08/31 04:46:10;;;;;;;8.57;5.82;;;17.60;99.90;;;;;;5005868;28;20311;-75
2022/08/31 04:48:36;;;;;;;9.97;5.63;;;17.60;99.90;;;;;;5004610;28;20034;-76
2022/08/31 04:51:13;;;;;;;6.50;5.37;;;17.60;99.90;;;;;;5004528;28;20050;-76
2022/08/31 04:53:39;;;;;;;10.45;6.15;;;17.60;99.90;;;;;;5004416;28;20026;-76
2022/08/31 04:56:13;;;;;;;7.55;5.47;;;17.60;99.90;;;;;;5004437;28;20037;-76
2022/08/31 04:58:47;;;;;;;9.75;5.57;;;17.60;99.90;;;;;;4989055;28;20026;-76
2022/08/31 05:01:16;;;;;;;7.30;5.50;;;17.50;99.90;;;;;;5004394;28;20030;-76
2022/08/31 05:03:42;;;;;;;8.70;6.00;;;17.50;99.90;;;;;;4992216;28;20065;-76
2022/08/31 05:06:13;;;;;;;8.60;5.70;;;17.50;99.90;;;;;;4984837;28;20034;-76
2022/08/31 05:08:39;;;;;;;8.15;5.88;;;17.50;99.90;;;;;;4984903;28;20038;-76
2022/08/31 05:11:16;;;;;;;10.50;6.40;;;17.50;99.90;;;;;;4984763;28;20221;-75
2022/08/31 05:13:42;;;;;;;12.38;6.10;;;17.60;99.90;;;;;;4997836;28;20022;-75
2022/08/31 05:16:09;;;;;;;7.17;5.83;;;17.60;99.90;;;;;;5004041;28;20029;-76
2022/08/31 05:18:42;;;;;;;12.40;6.43;;;17.60;99.90;;;;;;5004066;28;20033;-75
2022/08/31 05:21:16;;;;;;;9.02;5.20;;;17.60;99.90;;;;;;5004373;28;20029;-75
2022/08/31 05:23:45;;;;;;;9.73;6.07;;;17.60;99.90;;;;;;5004027;28;20026;-76
2022/08/31 05:26:16;;;;;;;10.57;5.72;;;17.70;99.90;;;;;;5003903;28;20325;-76
2022/08/31 05:28:42;;;;;;;10.65;5.97;;;17.70;99.90;;;;;;5003574;28;20096;-76
2022/08/31 05:31:08;;;;;;;14.73;11.27;;;17.70;99.90;;;;;;5003859;28;20026;-76
2022/08/31 05:33:33;;;;;;;14.30;9.03;;;17.70;99.90;;;;;;5004519;28;20022;-75
2022/08/31 05:36:03;;;;;;;8.57;6.73;;;17.80;99.90;;;;;;5004734;28;20274;-76
2022/08/31 05:38:31;;;;;;;8.93;6.07;;;17.80;99.90;;;;;;5003612;28;20329;-76
2022/08/31 05:40:57;;;;;;;7.20;5.72;;;17.80;99.90;;;;;;4987779;28;20034;-76
2022/08/31 05:43:23;;;;;;;9.20;6.17;;;17.90;99.90;;;;;;5003044;28;20084;-76
2022/08/31 05:45:49;;;;;;;9.27;6.15;;;17.90;99.90;;;;;;5003434;28;20781;-76
2022/08/31 05:48:15;;;;;;;9.87;6.03;;;17.90;99.90;;;;;;5002356;28;20069;-77
2022/08/31 05:50:41;;;;;;;7.83;6.30;;;18.00;99.90;;;;;;5004683;28;20037;-83
2022/08/31 05:53:07;;;;;;;8.73;6.13;;;18.00;99.90;;;;;;5003616;28;20061;-70
2022/08/31 05:55:32;;;;;;;8.57;5.60;;;18.00;99.90;;;;;;5004428;28;20321;-72
2022/08/31 05:57:59;;;;;;;12.43;6.37;;;18.00;99.90;;;;;;5004143;28;20041;-74
2022/08/31 06:00:25;;;;;;;11.07;6.03;;;18.10;99.90;;;;;;5003416;28;20061;-74
2022/08/31 06:02:51;;;;;;;8.30;5.70;;;18.10;99.90;;;;;;5003145;28;20049;-72
2022/08/31 06:05:17;;;;;;;11.35;5.82;;;18.10;99.90;;;;;;5004386;28;20325;-72
2022/08/31 06:07:44;;;;;;;10.52;6.10;;;18.20;99.90;;;;;;5004400;28;20157;-72
2022/08/31 06:10:10;;;;;;;7.85;5.88;;;18.30;99.90;;;;;;5003117;28;20259;-72
2022/08/31 06:12:37;;;;;;;8.88;5.40;;;18.30;99.90;;;;;;5004025;28;20274;-72
2022/08/31 06:15:05;;;;;;;8.18;5.80;;;18.40;99.90;;;;;;5003642;28;20502;-72
2022/08/31 06:17:31;;;;;;;6.53;5.10;;;18.40;99.90;;;;;;5002860;28;20217;-73
2022/08/31 06:19:57;;;;;;;10.00;5.75;;;18.50;99.90;;;;;;5004036;28;20040;-74
2022/08/31 06:22:24;;;;;;;9.48;5.82;;;18.50;99.90;;;;;;4986798;28;20453;-72
2022/08/31 06:24:50;;;;;;;12.57;5.90;;;18.60;99.90;;;;;;5003667;28;20096;-72
2022/08/31 06:27:16;;;;;;;7.40;5.43;;;18.60;99.90;;;;;;5002742;28;20030;-72
2022/08/31 06:29:42;;;;;;;9.10;5.63;;;18.60;99.90;;;;;;5003450;28;20015;-72
2022/08/31 06:32:08;;;;;;;9.77;5.93;;;18.70;99.90;;;;;;5003920;28;20090;-72
2022/08/31 06:34:35;;;;;;;10.30;6.35;;;18.70;99.90;;;;;;5003484;28;20030;-72
2022/08/31 06:37:01;;;;;;;12.20;5.75;;;18.70;99.90;;;;;;5002540;28;20030;-72
2022/08/31 06:39:26;;;;;;;7.18;5.63;;;18.80;99.90;;;;;;5002600;28;20029;-72
2022/08/31 06:41:52;;;;;;;10.90;5.97;;;18.90;99.90;;;;;;5002533;28;20072;-72
2022/08/31 06:44:21;;;;;;;8.80;5.97;;;18.90;99.90;;;;;;5003245;28;20033;-72
2022/08/31 06:46:47;;;;;;;7.97;6.05;;;19.00;99.90;;;;;;5002607;28;20045;-72
2022/08/31 06:49:13;;;;;;;10.80;5.03;;;19.00;99.90;;;;;;5018602;28;20396;-72
2022/08/31 06:51:39;;;;;;;7.50;5.53;;;19.00;99.90;;;;;;5002443;28;20026;-72
2022/08/31 06:54:06;;;;;;;6.90;5.63;;;19.00;99.90;;;;;;5003121;28;20375;-72
2022/08/31 06:56:32;;;;;;;7.75;5.07;;;19.10;99.90;;;;;;5003378;28;20022;-72
2022/08/31 06:59:00;;;;;;;6.70;5.93;;;19.10;99.90;;;;;;5002418;28;20027;-72
2022/08/31 07:01:27;;;;;;;10.13;6.53;;;19.10;99.90;;;;;;5003088;28;20026;-72
2022/08/31 07:03:54;;;;;;;8.95;5.13;;;19.10;99.90;;;;;;5001880;28;20026;-72
2022/08/31 07:06:33;;;;;;;10.60;6.53;;;19.10;99.90;;;;;;5002075;28;20111;-71
2022/08/31 07:09:00;;;;;;;10.95;5.55;;;19.10;99.90;;;;;;5003013;28;20085;-71
2022/08/31 07:11:33;;;;;;;9.98;5.53;;;19.10;99.90;;;;;;5003036;28;20018;-71
2022/08/31 07:14:00;;;;;;;6.45;4.68;;;19.10;99.90;;;;;;5001382;28;20057;-71
2022/08/31 07:16:26;;;;;;;11.32;5.88;;;19.10;99.90;;;;;;5002937;28;20026;-68
2022/08/31 07:18:53;;;;;;;9.35;5.55;;;19.10;99.90;;;;;;5001758;28;20225;-68
2022/08/31 07:21:29;;;;;;;6.88;6.10;;;19.10;99.90;;;;;;5001673;28;20037;-68
2022/08/31 07:23:57;;;;;;;7.47;5.93;;;19.10;99.90;;;;;;5001603;28;20042;-68
2022/08/31 07:26:27;;;;;;;7.68;5.45;;;19.20;99.90;;;;;;5001695;28;20021;-68
2022/08/31 07:28:56;;;;;;;7.47;6.00;;;19.20;99.90;;;;;;5002575;28;20036;-68
2022/08/31 07:31:25;;;;;;;9.15;5.28;;;19.20;99.90;;;;;;5002740;28;20069;-68
2022/08/31 07:33:54;;;;;;;6.18;5.20;;;19.20;99.90;;;;;;5001373;28;20029;-69
2022/08/31 07:36:21;;;;;;;7.35;5.15;;;19.30;99.90;;;;;;5002806;28;20014;-72
2022/08/31 07:44:17;;;;;;;7.93;4.93;;;19.40;99.90;;;;;;5002251;28;20037;-71
2022/08/31 07:46:44;;;;;;;6.70;5.00;;;19.40;99.90;;;;;;5001621;28;20029;-71
2022/08/31 07:49:12;;;;;;;;;;;19.40;99.90;;;;;;5003245;28;20060;-71
2022/08/31 07:51:51;;;;;;;8.65;5.15;;;19.50;99.90;;;;;;5001566;28;20101;-71
2022/08/31 07:54:19;;;;;;;13.82;5.28;;;19.50;99.90;;;;;;5002409;28;20098;-71
2022/08/31 07:56:50;;;;;;;9.63;4.97;;;19.50;99.90;;;;;;5001611;28;20033;-70
2022/08/31 07:59:17;;;;;;;9.60;5.22;;;19.60;99.90;;;;;;5002290;28;20018;-70
2022/08/31 08:01:43;;;;;;;8.18;4.97;;;19.60;99.90;;;;;;5002588;28;20085;-70
2022/08/31 08:04:12;;;;;;;9.77;5.40;;;19.60;99.90;;;;;;5002481;28;20030;-71
2022/08/31 08:06:37;;;;;;;6.88;5.10;;;19.70;99.90;;;;;;5001414;28;20037;-71
2022/08/31 08:09:06;;;;;;;8.63;5.43;;;19.70;99.90;;;;;;5002402;28;20019;-71
2022/08/31 08:11:35;;;;;;;7.93;4.82;;;19.80;99.90;;;;;;5002950;28;20022;-71
2022/08/31 08:14:03;;;;;;;8.68;5.50;;;19.80;99.90;;;;;;5005888;28;20026;-71
2022/08/31 08:16:29;;;;;;;8.73;4.95;;;19.90;99.90;;;;;;5006558;28;20064;-71
2022/08/31 08:18:54;;;;;;;7.17;4.70;;;20.00;99.90;;;;;;5006409;28;20093;-71
2022/08/31 08:21:20;;;;;;;5.43;4.23;;;20.00;99.90;;;;;;5006242;28;20036;-71
2022/08/31 08:23:46;;;;;;;7.93;5.10;;;20.10;99.90;;;;;;5006198;28;20030;-71
2022/08/31 08:26:12;;;;;;;5.80;4.57;;;20.10;99.90;;;;;;5006227;28;20090;-70
2022/08/31 08:28:37;;;;;;;8.43;4.70;;;20.20;99.90;;;;;;5005791;28;20030;-71
2022/08/31 08:31:05;;;;;;;6.13;4.40;;;20.30;99.90;;;;;;5006207;28;20022;-71
2022/08/31 08:33:32;;;;;;;6.40;4.68;;;20.30;99.90;;;;;;5004948;28;20022;-71
2022/08/31 08:36:01;;;;;;;5.95;4.03;;;20.40;99.90;;;;;;5005104;28;20034;-71
2022/08/31 08:38:29;;;;;;;6.88;4.20;;;20.40;99.90;;;;;;5005782;28;20041;-71
2022/08/31 08:40:59;;;;;;;8.57;4.32;;;20.50;99.90;;;;;;5006095;28;20030;-72
2022/08/31 08:43:32;;;;;;;4.75;4.15;;;20.60;99.90;;;;;;5004311;28;20068;-71
2022/08/31 08:46:01;;;;;;;5.35;4.22;;;20.70;99.90;;;;;;5004794;28;20142;-72
2022/08/31 08:48:28;;;;;;;6.25;4.25;;;20.80;99.90;;;;;;5004551;28;20049;-71
2022/08/31 08:50:54;;;;;;;4.63;4.00;;;20.90;99.90;;;;;;5004866;28;20045;-72
2022/08/31 08:53:21;;;;;;;6.50;3.87;;;21.00;99.90;;;;;;5005155;28;20317;-72
2022/08/31 08:55:47;;;;;;;6.53;4.40;;;21.10;99.90;;;;;;5004592;28;20022;-71
2022/08/31 08:58:14;;;;;;;6.40;3.93;;;21.10;99.90;;;;;;5004930;28;20030;-70
2022/08/31 09:00:45;;;;;;;7.28;3.97;;;21.20;99.90;;;;;;4988231;28;20026;-70
2022/08/31 09:03:22;;;;;;;5.32;4.13;;;21.20;99.90;;;;;;5005293;28;20023;-70
2022/08/31 09:05:58;;;;;;;8.32;3.67;;;21.30;99.90;;;;;;5005315;28;20069;-71
2022/08/31 09:09:07;;;;;;;5.55;3.70;;;21.30;99.90;;;;;;5004176;28;20023;-70
2022/08/31 09:12:07;;;;;;;7.97;4.68;;;21.40;99.90;;;;;;5005332;28;20046;-70
2022/08/31 09:15:34;;;;;;;5.82;3.92;;;21.40;99.90;;;;;;5005006;28;20026;-70
2022/08/31 09:18:09;;;;;;;4.70;3.67;;;21.50;99.90;;;;;;4966888;28;20097;-70
2022/08/31 09:20:35;;;;;;;5.85;3.90;;;21.60;99.90;;;;;;5004040;28;20395;-71
2022/08/31 09:23:06;;;;;;;7.07;4.47;;;21.60;99.90;;;;;;5005037;28;20030;-71
2022/08/31 09:25:50;;;;;;;5.28;4.28;;;21.70;99.90;;;;;;5005035;28;20093;-71
2022/08/31 09:28:17;;;;;;;8.05;4.20;;;21.70;99.90;;;;;;5003738;28;20037;-71
2022/08/31 09:30:50;;;;;;;7.03;4.40;;;21.70;99.90;;;;;;5003460;28;20018;-70
2022/08/31 09:33:34;;;;;;;5.68;3.90;;;21.80;99.90;;;;;;5004571;28;20018;-71
2022/08/31 09:36:18;;;;;;;5.20;4.25;;;21.80;99.90;;;;;;5004908;28;20203;-70
2022/08/31 09:38:45;;;;;;;4.60;3.88;;;21.90;99.90;;;;;;5003724;28;20037;-70
2022/08/31 09:41:27;;;;;;;4.22;3.70;;;22.00;99.90;;;;;;5003575;28;20033;-71
2022/08/31 09:43:54;;;;;;;5.32;3.78;;;22.10;99.90;;;;;;5002033;28;20166;-70
2022/08/31 09:46:27;;;;;;;4.47;3.58;;;22.10;99.90;;;;;;5003596;28;20349;-70
2022/08/31 09:49:01;;;;;;;4.97;3.42;;;22.10;99.90;;;;;;5003511;28;20030;-70
2022/08/31 09:51:28;;;;;;;7.85;4.57;;;22.20;99.90;;;;;;5004582;28;20018;-70
2022/08/31 09:56:56;;;;;;;7.28;4.10;;;22.30;99.90;;;;;;5003505;28;20033;-70
2022/08/31 09:59:47;;;;;;;5.38;3.80;;;22.40;99.90;;;;;;5003974;28;20314;-71
2022/08/31 10:02:25;;;;;;;6.55;3.53;;;22.50;99.90;;;;;;5003331;28;20220;-71
2022/08/31 10:04:53;;;;;;;5.63;3.92;;;22.60;99.90;;;;;;5004345;28;20082;-71
2022/08/31 10:07:40;;;;;;;4.53;3.45;;;22.60;99.90;;;;;;5004117;28;20026;-70
2022/08/31 10:10:15;;;;;;;4.25;3.38;;;22.70;99.90;;;;;;5004136;28;20018;-71
2022/08/31 10:12:53;;;;;;;4.05;3.53;;;22.70;99.90;;;;;;5002774;28;20065;-71
2022/08/31 10:15:23;;;;;;;4.60;3.47;;;22.80;99.90;;;;;;5002621;28;20105;-71
2022/08/31 10:18:16;;;;;;;4.53;3.35;;;22.90;99.90;;;;;;5002782;28;20268;-71
2022/08/31 10:20:52;;;;;;;6.43;3.58;;;22.90;99.90;;;;;;5002794;28;20038;-71
2022/08/31 10:23:24;;;;;;;4.82;3.13;;;23.00;99.90;;;;;;5002692;28;20332;-70
2022/08/31 10:26:06;;;;;;;4.95;3.20;;;23.20;99.90;;;;;;4984248;28;20094;-70
2022/08/31 10:28:54;;;;;;;3.90;3.42;;;23.30;99.90;;;;;;4964319;28;20090;-70
2022/08/31 10:31:35;;;;;;;3.85;3.40;;;23.40;99.90;;;;;;4964250;28;20031;-68
2022/08/31 10:36:59;;;;;;;4.88;3.65;;;23.70;99.90;;;;;;4977559;28;20026;-66
2022/08/31 10:39:46;;;;;;;4.20;3.47;;;23.70;99.90;;;;;;4979048;28;20015;-66
2022/08/31 10:42:18;;;;;;;4.70;3.78;;;23.80;99.90;;;;;;4979226;28;20385;-66
2022/08/31 10:44:55;;;;;;;5.72;3.53;;;23.80;99.90;;;;;;4994350;28;20034;-66
2022/08/31 10:47:27;;;;;;;;;;;23.80;99.90;;;;;;5002569;28;20325;-66
2022/08/31 10:49:58;;;;;;;5.40;3.97;;;23.80;99.90;;;;;;5003336;28;20247;-66
2022/08/31 10:52:59;;;;;;;4.47;3.55;;;23.90;99.90;;;;;;5002268;28;20026;-66
2022/08/31 10:55:36;;;;;;;4.05;3.60;;;24.00;99.90;;;;;;4998169;28;20105;-66
2022/08/31 10:58:23;;;;;;;3.78;3.40;;;24.00;99.90;;;;;;5002016;28;20021;-66
2022/08/31 11:00:55;;;;;;;7.35;3.25;;;24.00;99.90;;;;;;5001581;28;20372;-66
2022/08/31 11:04:04;;;;;;;5.68;3.42;;;24.00;99.90;;;;;;5002894;28;20336;-66
2022/08/31 11:06:55;;;;;;;7.72;3.05;;;24.00;99.90;;;;;;5002819;28;20030;-66
2022/08/31 11:09:29;;;;;;;6.43;3.10;;;24.10;99.90;;;;;;5001887;28;20030;-66
2022/08/31 11:12:07;;;;;;;5.43;3.08;;;24.20;99.90;;;;;;5002281;28;20053;-67
2022/08/31 11:15:29;;;;;;;4.90;3.55;;;24.20;99.90;;;;;;4990340;28;20050;-66
2022/08/31 11:18:19;;;;;;;4.82;3.28;;;24.30;99.90;;;;;;4983278;28;20215;-71
2022/08/31 11:21:34;;;;;;;7.80;3.60;;;24.40;99.90;;;;;;4964481;28;20050;-69
2022/08/31 11:24:45;;;;;;;4.82;3.22;;;24.40;99.90;;;;;;4964028;29;20031;-71
2022/08/31 11:27:35;;;;;;;3.97;3.38;;;24.40;99.90;;;;;;4963468;28;20078;-69
2022/08/31 11:30:27;;;;;;;3.45;3.05;;;24.30;99.90;;;;;;4983101;28;20332;-72
2022/08/31 11:33:06;;;;;;;3.95;2.90;;;24.30;99.90;;;;;;4954699;28;20030;-71
2022/08/31 11:36:05;;;;;;;6.25;3.60;;;24.30;99.90;;;;;;4967032;28;20086;-71
2022/08/31 11:38:53;;;;;;;5.22;3.30;;;24.20;99.90;;;;;;4982106;28;20097;-71
2022/08/31 11:41:38;;;;;;;;;;;24.30;99.90;;;;;;4967134;28;20037;-70
2022/08/31 11:44:06;;;;;;;9.93;3.50;;;24.20;99.90;;;;;;4987076;28;19906;-71
2022/08/31 11:46:39;;;;;;;5.95;3.00;;;24.20;99.90;;;;;;5001690;28;20022;-71
2022/08/31 11:49:05;;;;;;;6.25;3.58;;;24.10;99.90;;;;;;5002759;28;20050;-71
2022/08/31 11:51:44;;;;;;;6.53;3.40;;;24.10;99.90;;;;;;5003245;28;20094;-72
2022/08/31 11:54:25;;;;;;;3.60;3.00;;;24.00;99.90;;;;;;5002182;28;20033;-72
2022/08/31 11:56:55;;;;;;;5.38;3.40;;;24.00;99.90;;;;;;5001898;28;20021;-71
2022/08/31 11:59:30;;;;;;;6.07;3.15;;;23.90;99.90;;;;;;4983993;28;20030;-72
2022/08/31 12:01:58;;;;;;;4.57;3.40;;;23.80;99.90;;;;;;4983134;28;20014;-71
2022/08/31 12:04:40;;;;;;;3.90;2.70;;;23.70;99.90;;;;;;4997590;28;20266;-71
2022/08/31 12:07:09;;;;;;;5.25;3.08;;;23.60;99.90;;;;;;4982982;28;20035;-72
2022/08/31 12:10:13;;;;;;;5.10;3.22;;;23.50;99.90;;;;;;4997648;28;20078;-72
2022/08/31 12:12:45;;;;;;;4.70;2.90;;;23.40;99.90;;;;;;4982089;28;20046;-71
2022/08/31 12:15:25;;;;;;;4.22;3.20;;;23.20;99.90;;;;;;4998516;28;20019;-72
2022/08/31 12:18:10;;;;;;;4.07;3.28;;;23.10;99.90;;;;;;5003131;28;20028;-72
2022/08/31 12:23:57;;;;;;;5.07;3.67;;;22.90;99.90;;;;;;5002162;28;20036;-72
2022/08/31 12:26:54;;;;;;;8.35;3.70;;;22.70;99.90;;;;;;5001531;28;20085;-71
2022/08/31 12:29:25;;;;;;;5.28;3.05;;;22.60;99.90;;;;;;4987171;28;20262;-71
2022/08/31 12:32:11;;;;;;;4.43;3.50;;;22.50;99.90;;;;;;4982949;28;20026;-71
2022/08/31 12:35:09;;;;;;;4.22;3.55;;;22.40;99.90;;;;;;4981811;28;20093;-72
2022/08/31 12:37:36;;;;;;;3.50;2.90;;;22.30;99.90;;;;;;4981941;28;20030;-71
2022/08/31 12:40:22;;;;;;;4.97;3.33;;;22.20;99.90;;;;;;4998073;28;20348;-72
2022/08/31 12:43:08;;;;;;;3.53;3.08;;;22.20;99.90;;;;;;4982680;28;20031;-71
2022/08/31 12:45:48;;;;;;;4.68;3.35;;;22.10;99.90;;;;;;5015232;28;20149;-72
2022/08/31 12:48:56;;;;;;;3.92;2.88;;;22.00;99.90;;;;;;5001989;28;20353;-72
2022/08/31 12:51:48;;;;;;;9.35;3.35;;;22.00;99.90;;;;;;5001436;28;20093;-72
2022/08/31 12:54:19;;;;;;;5.75;4.00;;;22.00;99.90;;;;;;5000750;28;20065;-71
2022/08/31 12:57:25;;;;;;;6.32;3.50;;;22.00;99.90;;;;;;5002213;28;20053;-72
2022/08/31 13:00:25;;;;;;;5.25;3.53;;;22.00;99.90;;;;;;4986120;28;20040;-71
2022/08/31 13:02:57;;;;;;;6.47;4.13;;;21.90;99.90;;;;;;4999303;28;20018;-71
2022/08/31 13:05:32;;;;;;;5.57;3.28;;;21.90;99.90;;;;;;4986657;28;20019;-72
2022/08/31 13:07:58;;;;;;;5.13;3.75;;;21.90;99.90;;;;;;5001624;28;20318;-72
2022/08/31 13:10:30;;;;;;;5.97;3.95;;;21.90;99.90;;;;;;5001386;28;20034;-71
2022/08/31 13:12:59;;;;;;;5.95;3.75;;;21.90;99.90;;;;;;5001011;28;20134;-72
2022/08/31 13:15:36;;;;;;;5.00;3.90;;;21.90;99.90;;;;;;5003049;28;20341;-71
2022/08/31 13:18:02;;;;;;;7.67;3.97;;;22.00;99.90;;;;;;5004608;28;20030;-72
2022/08/31 13:20:42;;;;;;;5.03;3.78;;;22.00;99.90;;;;;;5004388;28;20341;-71
2022/08/31 13:23:11;;;;;;;5.43;4.28;;;22.00;99.90;;;;;;5004155;28;20034;-71
2022/08/31 13:25:37;;;;;;;6.20;4.55;;;22.10;99.90;;;;;;5004337;28;20068;-72
2022/08/31 13:28:10;;;;;;;4.88;4.20;;;22.20;99.90;;;;;;5017138;28;20030;-72